createdAt,value
2019-04-27T00:01:11.481Z,100331.47
2019-04-27T00:03:54.030Z,100333.02
2019-04-27T00:06:24.616Z,100332.05
2019-04-27T00:09:01.406Z,100334.62
2019-04-27T00:11:45.359Z,100328.17
2019-04-27T00:14:14.966Z,100323.61
2019-04-27T00:17:05.609Z,100328.51
2019-04-27T00:20:06.036Z,100327.19
2019-04-27T00:22:38.292Z,100321.70
2019-04-27T00:25:07.725Z,100329.36
2019-04-27T00:27:37.121Z,100323.05
2019-04-27T00:30:06.787Z,100311.02
2019-04-27T00:32:36.142Z,100319.58
2019-04-27T00:35:05.651Z,100318.29
2019-04-27T00:37:49.603Z,100316.19
2019-04-27T00:40:23.621Z,100313.80
2019-04-27T00:42:54.166Z,100307.24
2019-04-27T00:45:23.731Z,100307.31
2019-04-27T00:47:59.069Z,100304.37
2019-04-27T00:50:24.366Z,100300.48
2019-04-27T00:52:53.751Z,100292.87
2019-04-27T00:55:23.457Z,100299.04
2019-04-27T00:58:07.870Z,100285.71
2019-04-27T01:00:59.149Z,100286.38
2019-04-27T01:03:53.041Z,100288.41
2019-04-27T01:06:23.889Z,100287.00
2019-04-27T01:08:53.324Z,100279.96
2019-04-27T01:11:24.878Z,100280.87
2019-04-27T01:13:53.930Z,100282.77
2019-04-27T01:16:24.144Z,100283.50
2019-04-27T01:18:53.790Z,100284.27
2019-04-27T01:21:23.154Z,100289.08
2019-04-27T01:23:52.571Z,100289.22
2019-04-27T01:26:53.082Z,100286.20
2019-04-27T01:29:25.535Z,100281.16
2019-04-27T01:31:54.963Z,100281.58
2019-04-27T01:34:24.384Z,100282.59
2019-04-27T01:36:53.756Z,100275.93
2019-04-27T01:39:23.476Z,100283.02
2019-04-27T01:41:52.854Z,100279.38
2019-04-27T01:44:22.365Z,100281.97
2019-04-27T01:46:51.721Z,100284.78
2019-04-27T01:49:21.124Z,100275.37
2019-04-27T01:51:50.605Z,100276.14
2019-04-27T01:54:21.655Z,100277.75
2019-04-27T01:56:51.016Z,100285.47
2019-04-27T01:59:20.700Z,100287.25
2019-04-27T02:02:12.823Z,100287.71
2019-04-27T02:05:03.994Z,100282.38
2019-04-27T02:07:33.676Z,100287.00
2019-04-27T02:10:03.471Z,100283.98
2019-04-27T02:12:32.841Z,100285.32
2019-04-27T02:15:02.249Z,100295.34
2019-04-27T02:17:31.610Z,100285.61
2019-04-27T02:20:01.011Z,100288.13
2019-04-27T02:22:31.144Z,100296.54
2019-04-27T02:25:00.558Z,100288.69
2019-04-27T02:27:31.647Z,100287.56
2019-04-27T02:30:40.871Z,100287.53
2019-04-27T02:33:30.166Z,100280.66
2019-04-27T02:36:00.291Z,100276.38
2019-04-27T02:38:30.611Z,100270.84
2019-04-27T02:41:01.450Z,100279.70
2019-04-27T02:43:54.157Z,100271.41
2019-04-27T02:46:23.660Z,100270.77
2019-04-27T02:49:00.003Z,100266.36
2019-04-27T02:51:42.547Z,100265.01
2019-04-27T02:54:12.599Z,100262.95
2019-04-27T02:56:41.533Z,100263.84
2019-04-27T02:59:11.928Z,100264.28
2019-04-27T03:01:50.310Z,100269.44
2019-04-27T03:04:20.441Z,100263.22
2019-04-27T03:06:50.190Z,100252.42
2019-04-27T03:09:20.477Z,100250.31
2019-04-27T03:11:50.307Z,100251.51
2019-04-27T03:14:53.960Z,100247.78
2019-04-27T03:17:51.082Z,100249.96
2019-04-27T03:20:29.835Z,100250.23
2019-04-27T03:23:02.250Z,100243.36
2019-04-27T03:25:56.272Z,100246.19
2019-04-27T03:28:26.136Z,100240.44
2019-04-27T03:30:55.532Z,100238.75
2019-04-27T03:33:24.913Z,100239.10
2019-04-27T03:35:54.348Z,100236.17
2019-04-27T03:38:23.715Z,100240.87
2019-04-27T03:40:53.391Z,100238.91
2019-04-27T03:43:24.899Z,100238.02
2019-04-27T03:45:54.517Z,100227.28
2019-04-27T03:48:23.916Z,100227.28
2019-04-27T03:51:11.121Z,100228.34
2019-04-27T03:54:02.446Z,100222.78
2019-04-27T03:56:39.528Z,100227.02
2019-04-27T03:59:11.781Z,100229.67
2019-04-27T04:01:41.209Z,100223.78
2019-04-27T04:04:10.705Z,100224.20
2019-04-27T04:06:40.227Z,100224.82
2019-04-27T04:09:10.299Z,100216.70
2019-04-27T04:11:50.227Z,100220.23
2019-04-27T04:14:21.388Z,100216.99
2019-04-27T04:17:01.680Z,100213.49
2019-04-27T04:19:29.634Z,100206.19
2019-04-27T04:21:59.862Z,100207.25
2019-04-27T04:24:31.770Z,100207.95
2019-04-27T04:27:00.913Z,100213.20
2019-04-27T04:29:30.763Z,100218.88
2019-04-27T04:32:00.697Z,100218.33
2019-04-27T04:34:30.135Z,100237.50
2019-04-27T04:37:00.413Z,100238.74
2019-04-27T04:39:30.020Z,100238.13
2019-04-27T04:42:11.608Z,100239.23
2019-04-27T04:45:05.663Z,100249.11
2019-04-27T04:47:49.720Z,100246.31
2019-04-27T04:50:20.340Z,100248.11
2019-04-27T04:52:50.220Z,100254.74
2019-04-27T04:55:20.367Z,100251.02
2019-04-27T04:57:50.063Z,100247.77
2019-04-27T05:00:19.991Z,100245.83
2019-04-27T05:02:50.104Z,100249.69
2019-04-27T05:05:19.453Z,100245.55
2019-04-27T05:07:48.867Z,100248.17
2019-04-27T05:10:18.899Z,100241.01
2019-04-27T05:12:50.422Z,100234.47
2019-04-27T05:15:20.744Z,100238.87
2019-04-27T05:17:51.192Z,100238.77
2019-04-27T05:20:39.758Z,100253.71
2019-04-27T05:23:09.814Z,100243.46
2019-04-27T05:25:39.292Z,100249.34
2019-04-27T05:28:09.790Z,100248.38
2019-04-27T05:30:39.347Z,100249.40
2019-04-27T05:33:09.122Z,100246.66
2019-04-27T05:35:40.928Z,100249.65
2019-04-27T05:38:12.959Z,100243.62
2019-04-27T05:40:40.945Z,100238.91
2019-04-27T05:43:11.877Z,100248.97
2019-04-27T05:46:39.638Z,100246.46
2019-04-27T05:49:13.463Z,100250.64
2019-04-27T05:51:42.838Z,100253.06
2019-04-27T05:54:12.265Z,100252.05
2019-04-27T05:56:41.607Z,100256.87
2019-04-27T05:59:11.001Z,100260.05
2019-04-27T06:01:40.341Z,100255.21
2019-04-27T06:04:09.766Z,100252.18
2019-04-27T06:06:39.881Z,100250.08
2019-04-27T06:09:09.638Z,100250.86
2019-04-27T06:11:40.019Z,100254.46
2019-04-27T06:14:09.859Z,100248.06
2019-04-27T06:16:39.503Z,100245.39
2019-04-27T06:19:09.582Z,100242.53
2019-04-27T06:21:40.097Z,100236.84
2019-04-27T06:24:09.796Z,100234.27
2019-04-27T06:26:39.942Z,100238.95
2019-04-27T06:29:09.666Z,100229.59
2019-04-27T06:31:39.627Z,100232.52
2019-04-27T06:34:09.817Z,100225.22
2019-04-27T06:36:39.334Z,100223.31
2019-04-27T06:39:09.955Z,100225.00
2019-04-27T06:41:40.025Z,100216.56
2019-04-27T06:44:11.402Z,100211.16
2019-04-27T06:46:40.861Z,100220.55
2019-04-27T06:49:11.014Z,100210.73
2019-04-27T06:51:40.801Z,100211.97
2019-04-27T06:54:10.181Z,100212.83
2019-04-27T06:56:39.612Z,100212.37
2019-04-27T06:59:09.065Z,100214.80
2019-04-27T07:01:39.115Z,100214.58
2019-04-27T07:04:10.855Z,100210.59
2019-04-27T07:06:52.898Z,100215.88
2019-04-27T07:09:10.857Z,100215.97
2019-04-27T07:11:40.397Z,100205.84
2019-04-27T07:14:11.615Z,100201.89
2019-04-27T07:16:41.276Z,100209.45
2019-04-27T07:19:10.651Z,100208.55
2019-04-27T07:21:40.213Z,100193.34
2019-04-27T07:24:09.617Z,100192.56
2019-04-27T07:26:39.279Z,100199.94
2019-04-27T07:29:09.643Z,100213.58
2019-04-27T07:31:40.043Z,100200.52
2019-04-27T07:34:09.690Z,100202.05
2019-04-27T07:36:39.460Z,100202.27
2019-04-27T07:39:11.488Z,100195.04
2019-04-27T07:41:40.558Z,100199.59
2019-04-27T07:44:31.337Z,100191.25
2019-04-27T07:47:34.784Z,100192.70
2019-04-27T07:50:04.275Z,100176.06
2019-04-27T07:52:33.701Z,100179.11
2019-04-27T07:55:03.437Z,100176.33
2019-04-27T07:57:32.931Z,100177.41
2019-04-27T08:00:02.371Z,100179.23
2019-04-27T08:02:31.807Z,100185.38
2019-04-27T08:05:01.172Z,100185.70
2019-04-27T08:07:30.580Z,100181.28
2019-04-27T08:10:01.643Z,100178.38
2019-04-27T08:12:31.362Z,100175.52
2019-04-27T08:15:00.953Z,100177.86
2019-04-27T08:17:31.198Z,100180.21
2019-04-27T08:20:00.576Z,100177.34
2019-04-27T08:22:30.098Z,100183.63
2019-04-27T08:24:59.666Z,100178.00
2019-04-27T08:27:51.201Z,100174.00
2019-04-27T08:30:34.108Z,100175.33
2019-04-27T08:33:05.632Z,100173.69
2019-04-27T08:35:35.221Z,100175.44
2019-04-27T08:38:04.705Z,100171.05
2019-04-27T08:40:34.085Z,100170.23
2019-04-27T08:43:03.490Z,100165.30
2019-04-27T08:45:32.890Z,100168.83
2019-04-27T08:48:02.281Z,100153.30
2019-04-27T08:50:31.674Z,100155.02
2019-04-27T08:53:01.077Z,100154.91
2019-04-27T08:55:30.486Z,100157.13
2019-04-27T08:57:59.920Z,100150.42
2019-04-27T09:00:29.279Z,100149.42
2019-04-27T09:02:59.517Z,100142.45
2019-04-27T09:05:29.185Z,100152.95
2019-04-27T09:08:21.868Z,100141.64
2019-04-27T09:11:12.908Z,100137.38
2019-04-27T09:13:59.799Z,100135.88
2019-04-27T09:16:40.856Z,100135.37
2019-04-27T09:19:18.858Z,100133.19
2019-04-27T09:22:15.252Z,100129.78
2019-04-27T09:24:36.035Z,100119.20
2019-04-27T09:27:05.786Z,100119.42
2019-04-27T09:29:35.183Z,100114.91
2019-04-27T09:32:04.597Z,100110.87
2019-04-27T09:34:34.081Z,100114.66
2019-04-27T09:37:03.440Z,100112.59
2019-04-27T09:39:32.856Z,100106.48
2019-04-27T09:42:02.243Z,100106.89
2019-04-27T09:44:31.702Z,100100.15
2019-04-27T09:47:01.086Z,100098.27
2019-04-27T09:49:30.524Z,100100.66
2019-04-27T09:51:59.925Z,100093.40
2019-04-27T09:54:29.341Z,100096.62
2019-04-27T09:56:58.712Z,100097.48
2019-04-27T09:59:28.168Z,100090.77
2019-04-27T10:01:57.770Z,100088.37
2019-04-27T10:04:27.285Z,100093.84
2019-04-27T10:06:57.082Z,100102.08
2019-04-27T10:09:29.562Z,100095.69
2019-04-27T10:11:58.178Z,100097.42
2019-04-27T10:14:27.808Z,100098.81
2019-04-27T10:16:57.611Z,100091.12
2019-04-27T10:19:31.205Z,100097.66
2019-04-27T10:21:58.531Z,100092.30
2019-04-27T10:24:28.293Z,100092.91
2019-04-27T10:26:57.888Z,100095.97
2019-04-27T10:29:27.431Z,100097.91
2019-04-27T10:31:56.872Z,100099.72
2019-04-27T10:34:26.417Z,100093.50
2019-04-27T10:36:56.078Z,100092.63
2019-04-27T10:39:27.770Z,100089.05
2019-04-27T10:41:56.799Z,100083.39
2019-04-27T10:44:26.711Z,100073.34
2019-04-27T10:46:56.937Z,100069.12
2019-04-27T10:49:26.523Z,100070.67
2019-04-27T10:51:56.257Z,100064.56
2019-04-27T10:54:26.252Z,100070.56
2019-04-27T10:56:55.989Z,100065.53
2019-04-27T10:59:27.661Z,100071.02
2019-04-27T11:01:57.170Z,100062.02
2019-04-27T11:04:44.173Z,100061.55
2019-04-27T11:07:15.949Z,100058.47
2019-04-27T11:09:45.584Z,100041.80
2019-04-27T11:12:15.882Z,100046.27
2019-04-27T11:14:45.526Z,100054.07
2019-04-27T11:17:16.430Z,100049.48
2019-04-27T11:19:46.136Z,100050.52
2019-04-27T11:22:16.426Z,100042.59
2019-04-27T11:24:47.845Z,100042.56
2019-04-27T11:27:17.405Z,100039.72
2019-04-27T11:29:47.044Z,100022.17
2019-04-27T11:32:17.315Z,100025.72
2019-04-27T11:35:09.682Z,100029.31
2019-04-27T11:37:39.281Z,100025.91
2019-04-27T11:40:09.055Z,100019.71
2019-04-27T11:42:38.737Z,100016.86
2019-04-27T11:45:08.372Z,100019.34
2019-04-27T11:47:38.008Z,100013.16
2019-04-27T11:50:08.452Z,100018.14
2019-04-27T11:52:38.049Z,100011.86
2019-04-27T11:55:07.686Z,100004.10
2019-04-27T11:57:37.722Z,100001.22
2019-04-27T12:00:08.839Z,100000.69
2019-04-27T12:02:38.736Z,100002.52
2019-04-27T12:05:08.518Z,99987.63
2019-04-27T12:07:38.143Z,99991.70
2019-04-27T12:10:07.810Z,99990.22
2019-04-27T12:12:37.468Z,99982.33
2019-04-27T12:15:07.957Z,99990.08
2019-04-27T12:17:37.606Z,99991.85
2019-04-27T12:20:07.480Z,99983.65
2019-04-27T12:22:37.099Z,99988.99
2019-04-27T12:25:06.928Z,99984.81
2019-04-27T12:27:55.523Z,99994.74
2019-04-27T12:30:44.075Z,100007.70
2019-04-27T12:33:13.729Z,100025.36
2019-04-27T12:35:43.394Z,100027.15
2019-04-27T12:38:13.187Z,100012.95
2019-04-27T12:40:42.834Z,100022.97
2019-04-27T12:43:12.492Z,100030.77
2019-04-27T12:45:43.603Z,100043.20
2019-04-27T12:48:13.479Z,100043.58
2019-04-27T12:50:43.021Z,100036.03
2019-04-27T12:53:18.304Z,100050.73
2019-04-27T12:56:09.856Z,100043.47
2019-04-27T12:58:53.473Z,100049.60
2019-04-27T13:01:23.640Z,100055.64
2019-04-27T13:03:53.270Z,100052.11
2019-04-27T13:06:22.897Z,100051.99
2019-04-27T13:08:52.685Z,100060.36
2019-04-27T13:11:22.993Z,100052.78
2019-04-27T13:13:52.740Z,100054.68
2019-04-27T13:16:22.273Z,100042.59
2019-04-27T13:18:51.979Z,100022.58
2019-04-27T13:21:21.735Z,100030.95
2019-04-27T13:24:01.262Z,100032.95
2019-04-27T13:26:22.788Z,100037.34
2019-04-27T13:28:52.457Z,100038.11
2019-04-27T13:31:22.084Z,100039.78
2019-04-27T13:33:51.771Z,100053.22
2019-04-27T13:36:21.386Z,100058.28
2019-04-27T13:38:51.073Z,100056.67
2019-04-27T13:41:30.322Z,100058.92
2019-04-27T13:43:52.236Z,100056.52
2019-04-27T13:46:43.584Z,100060.32
2019-04-27T13:49:38.074Z,100067.03
2019-04-27T13:52:12.903Z,100058.32
2019-04-27T13:54:42.599Z,100035.59
2019-04-27T13:57:12.355Z,100031.54
2019-04-27T13:59:42.000Z,100045.98
2019-04-27T14:02:13.236Z,100051.41
2019-04-27T14:04:43.151Z,100048.19
2019-04-27T14:07:12.756Z,100039.72
2019-04-27T14:09:42.400Z,100029.12
2019-04-27T14:12:21.860Z,100032.16
2019-04-27T14:14:51.513Z,100023.59
2019-04-27T14:17:21.201Z,100027.34
2019-04-27T14:19:50.829Z,100035.20
2019-04-27T14:22:20.388Z,100035.55
2019-04-27T14:24:50.185Z,100030.58
2019-04-27T14:27:21.400Z,100029.91
2019-04-27T14:29:51.005Z,100054.95
2019-04-27T14:32:20.680Z,100044.16
2019-04-27T14:34:50.507Z,100047.37
2019-04-27T14:37:20.210Z,100050.56
2019-04-27T14:39:49.836Z,100047.98
2019-04-27T14:42:19.509Z,100042.56
2019-04-27T14:44:49.308Z,100029.08
2019-04-27T14:47:19.007Z,100019.70
2019-04-27T14:49:49.211Z,100020.35
2019-04-27T14:52:18.988Z,100013.69
2019-04-27T14:54:50.822Z,100014.08
2019-04-27T14:57:20.445Z,100006.42
2019-04-27T14:59:50.518Z,100010.23
2019-04-27T15:02:20.160Z,100007.16
2019-04-27T15:04:50.034Z,100003.48
2019-04-27T15:07:19.610Z,100003.83
2019-04-27T15:09:49.614Z,100006.98
2019-04-27T15:12:24.516Z,100024.05
2019-04-27T15:14:53.381Z,100030.34
2019-04-27T15:17:26.618Z,100044.61
2019-04-27T15:20:00.300Z,100049.03
2019-04-27T15:22:31.911Z,100046.99
2019-04-27T15:25:13.555Z,100050.21
2019-04-27T15:27:42.189Z,100048.26
2019-04-27T15:30:17.775Z,100046.27
2019-04-27T15:33:16.533Z,100049.36
2019-04-27T15:35:53.968Z,100060.14
2019-04-27T15:38:26.354Z,100064.50
2019-04-27T15:41:14.995Z,100086.24
2019-04-27T15:43:45.046Z,100097.60
2019-04-27T15:46:14.599Z,100101.91
2019-04-27T15:48:44.268Z,100113.31
2019-04-27T15:51:17.482Z,100116.56
2019-04-27T15:53:45.961Z,100128.87
2019-04-27T15:56:18.100Z,100122.46
2019-04-27T15:58:48.397Z,100128.15
2019-04-27T16:01:18.185Z,100123.06
2019-04-27T16:03:48.259Z,100125.27
2019-04-27T16:06:38.369Z,100132.06
2019-04-27T16:09:11.100Z,100106.03
2019-04-27T16:11:40.633Z,100118.23
2019-04-27T16:14:09.996Z,100109.30
2019-04-27T16:16:40.385Z,100089.47
2019-04-27T16:19:11.555Z,100096.91
2019-04-27T16:21:46.929Z,100104.55
2019-04-27T16:24:12.610Z,100102.11
2019-04-27T16:26:46.511Z,100108.08
2019-04-27T16:29:14.466Z,100111.59
2019-04-27T16:31:43.893Z,100119.37
2019-04-27T16:34:13.264Z,100120.31
2019-04-27T16:36:43.672Z,100122.55
2019-04-27T16:39:13.740Z,100118.55
2019-04-27T16:41:43.134Z,100119.22
2019-04-27T16:44:12.505Z,100114.78
2019-04-27T16:46:43.137Z,100123.88
2019-04-27T16:49:15.100Z,100118.78
2019-04-27T16:51:43.890Z,100126.48
2019-04-27T16:54:18.369Z,100123.30
2019-04-27T16:56:45.729Z,100133.52
2019-04-27T16:59:38.685Z,100139.46
2019-04-27T17:01:47.510Z,100141.97
2019-04-27T17:04:17.090Z,100145.03
2019-04-27T17:06:49.237Z,100149.64
2019-04-27T17:09:18.953Z,100144.31
2019-04-27T17:11:50.280Z,100153.32
2019-04-27T17:14:28.944Z,100159.02
2019-04-27T17:17:10.395Z,100155.16
2019-04-27T17:19:41.996Z,100167.45
2019-04-27T17:22:14.724Z,100173.80
2019-04-27T17:24:46.391Z,100182.16
2019-04-27T17:27:16.246Z,100182.45
2019-04-27T17:29:50.042Z,100174.39
2019-04-27T17:32:33.773Z,100167.55
2019-04-27T17:35:05.622Z,100183.45
2019-04-27T17:37:35.338Z,100176.02
2019-04-27T17:40:04.825Z,100163.13
2019-04-27T17:42:34.209Z,100175.03
2019-04-27T17:45:03.576Z,100169.72
2019-04-27T17:47:32.999Z,100174.56
2019-04-27T17:50:02.363Z,100180.57
2019-04-27T17:52:31.766Z,100191.25
2019-04-27T17:55:01.287Z,100193.84
2019-04-27T17:57:30.744Z,100196.90
2019-04-27T18:00:03.251Z,100201.61
2019-04-27T18:02:33.812Z,100205.38
2019-04-27T18:05:02.337Z,100215.99
2019-04-27T18:07:34.856Z,100224.25
2019-04-27T18:10:02.852Z,100221.75
2019-04-27T18:12:32.547Z,100230.20
2019-04-27T18:15:01.968Z,100231.78
2019-04-27T18:17:32.345Z,100230.17
2019-04-27T18:20:04.578Z,100237.13
2019-04-27T18:22:39.666Z,100242.96
2019-04-27T18:25:09.980Z,100248.98
2019-04-27T18:28:01.502Z,100239.80
2019-04-27T18:30:38.667Z,100243.66
2019-04-27T18:33:05.099Z,100246.19
2019-04-27T18:35:34.463Z,100246.89
2019-04-27T18:38:03.906Z,100238.45
2019-04-27T18:40:33.664Z,100237.55
2019-04-27T18:43:06.344Z,100238.82
2019-04-27T18:45:39.809Z,100239.70
2019-04-27T18:48:13.492Z,100234.19
2019-04-27T18:51:00.605Z,100248.56
2019-04-27T18:53:30.661Z,100247.85
2019-04-27T18:56:05.009Z,100250.37
2019-04-27T18:58:31.155Z,100251.72
2019-04-27T19:01:00.539Z,100245.59
2019-04-27T19:03:31.691Z,100256.67
2019-04-27T19:06:01.056Z,100257.23
2019-04-27T19:08:30.444Z,100271.13
2019-04-27T19:11:00.390Z,100276.07
2019-04-27T19:13:29.951Z,100290.30
2019-04-27T19:15:59.939Z,100301.22
2019-04-27T19:18:29.398Z,100305.24
2019-04-27T19:20:58.798Z,100311.06
2019-04-27T19:23:29.815Z,100313.79
2019-04-27T19:26:30.447Z,100313.91
2019-04-27T19:29:29.233Z,100318.92
2019-04-27T19:32:00.499Z,100325.98
2019-04-27T19:34:31.171Z,100337.05
2019-04-27T19:37:00.508Z,100338.17
2019-04-27T19:39:30.015Z,100337.94
2019-04-27T19:42:03.411Z,100352.34
2019-04-27T19:44:30.591Z,100357.21
2019-04-27T19:47:00.384Z,100363.63
2019-04-27T19:49:31.787Z,100375.34
2019-04-27T19:52:00.945Z,100378.78
2019-04-27T19:54:30.428Z,100384.41
2019-04-27T19:56:59.882Z,100382.77
2019-04-27T19:59:33.916Z,100389.78
2019-04-27T20:02:08.723Z,100382.72
2019-04-27T20:04:39.680Z,100388.05
2019-04-27T20:07:10.579Z,100389.54
2019-04-27T20:09:58.639Z,100393.21
2019-04-27T20:12:28.049Z,100393.41
2019-04-27T20:14:57.471Z,100383.88
2019-04-27T20:17:28.138Z,100393.84
2019-04-27T20:19:57.529Z,100393.23
2019-04-27T20:22:26.930Z,100390.63
2019-04-27T20:24:56.385Z,100394.42
2019-04-27T20:27:25.811Z,100407.59
2019-04-27T20:29:55.191Z,100401.01
2019-04-27T20:32:24.623Z,100409.50
2019-04-27T20:34:54.419Z,100409.14
2019-04-27T20:37:23.825Z,100419.53
2019-04-27T20:39:53.171Z,100421.51
2019-04-27T20:42:22.730Z,100426.97
2019-04-27T20:44:52.070Z,100424.76
2019-04-27T20:47:21.483Z,100421.33
2019-04-27T20:49:50.833Z,100423.03
2019-04-27T20:52:26.068Z,100420.47
2019-04-27T20:54:55.419Z,100418.59
2019-04-27T20:57:24.824Z,100413.87
2019-04-27T20:59:54.167Z,100422.44
2019-04-27T21:02:34.986Z,100420.18
2019-04-27T21:05:13.228Z,100427.44
2019-04-27T21:07:47.578Z,100432.15
2019-04-27T21:10:17.002Z,100441.63
2019-04-27T21:12:46.596Z,100436.17
2019-04-27T21:15:15.986Z,100446.09
2019-04-27T21:17:45.418Z,100447.22
2019-04-27T21:20:14.798Z,100446.30
2019-04-27T21:22:44.183Z,100448.69
2019-04-27T21:25:13.579Z,100447.16
2019-04-27T21:27:42.954Z,100458.94
2019-04-27T21:30:12.298Z,100458.75
2019-04-27T21:32:41.705Z,100463.73
2019-04-27T21:35:11.436Z,100458.84
2019-04-27T21:37:41.016Z,100450.67
2019-04-27T21:40:28.574Z,100453.05
2019-04-27T21:42:57.991Z,100453.16
2019-04-27T21:45:31.796Z,100455.23
2019-04-27T21:48:01.619Z,100459.09
2019-04-27T21:50:31.391Z,100463.27
2019-04-27T21:53:22.987Z,100461.50
2019-04-27T21:56:11.316Z,100463.09
2019-04-27T21:58:42.039Z,100468.39
2019-04-27T22:01:24.904Z,100477.75
2019-04-27T22:03:54.303Z,100473.70
2019-04-27T22:06:25.225Z,100470.63
2019-04-27T22:08:54.769Z,100467.42
2019-04-27T22:11:24.398Z,100482.68
2019-04-27T22:13:54.056Z,100481.33
2019-04-27T22:16:23.737Z,100478.67
2019-04-27T22:18:53.579Z,100488.88
2019-04-27T22:21:23.244Z,100488.77
2019-04-27T22:23:57.943Z,100499.94
2019-04-27T22:26:27.600Z,100494.43
2019-04-27T22:28:57.236Z,100498.87
2019-04-27T22:31:26.881Z,100500.55
2019-04-27T22:33:56.554Z,100493.97
2019-04-27T22:36:26.227Z,100495.08
2019-04-27T22:38:57.713Z,100500.73
2019-04-27T22:41:49.163Z,100502.16
2019-04-27T22:44:38.703Z,100493.73
2019-04-27T22:47:08.281Z,100504.55
2019-04-27T22:49:38.027Z,100506.47
2019-04-27T22:52:07.698Z,100510.25
2019-04-27T22:54:37.347Z,100508.16
2019-04-27T22:57:25.410Z,100503.53
2019-04-27T23:00:05.479Z,100507.90
2019-04-27T23:02:40.766Z,100501.59
2019-04-27T23:05:10.986Z,100503.84
2019-04-27T23:07:41.501Z,100509.02
2019-04-27T23:10:11.356Z,100513.30
2019-04-27T23:12:41.922Z,100517.12
2019-04-27T23:15:15.536Z,100514.81
2019-04-27T23:18:03.135Z,100514.72
2019-04-27T23:20:32.824Z,100517.98
2019-04-27T23:23:02.856Z,100508.70
2019-04-27T23:25:32.770Z,100514.41
2019-04-27T23:28:02.623Z,100509.44
2019-04-27T23:30:42.642Z,100506.48
2019-04-27T23:33:12.385Z,100512.79
2019-04-27T23:35:42.134Z,100506.09
2019-04-27T23:38:17.240Z,100508.81
2019-04-27T23:40:43.217Z,100506.52
2019-04-27T23:43:12.854Z,100502.92
2019-04-27T23:45:42.514Z,100510.27
2019-04-27T23:48:12.434Z,100504.00
2019-04-27T23:50:44.021Z,100498.45
2019-04-27T23:53:17.518Z,100504.70
2019-04-27T23:55:47.259Z,100499.05
2019-04-27T23:58:16.861Z,100504.95
